Time;durP1;ratioP1;P1;durP2;ratioP2;P2;SDS_P1;SDS_P2;PMS_P1;PMS_P2;Temp;Humidity;BMP_temperature;BMP_pressure;BME280_temperature;BME280_humidity;BME280_pressure;Samples;Min_cycle;Max_cycle;Signal;HPM_P1;HPM_P2
2022/09/06 00:00:41;;;;;;;9.13;5.28;;;20.50;66.40;;;;;;5031148;28;20054;-67
2022/09/06 00:03:08;;;;;;;7.95;5.55;;;20.50;66.70;;;;;;5041282;28;20084;-67
2022/09/06 00:05:35;;;;;;;9.10;5.55;;;20.40;66.40;;;;;;5036665;28;20053;-68
2022/09/06 00:08:04;;;;;;;6.20;5.60;;;20.40;66.40;;;;;;5025916;28;20049;-68
2022/09/06 00:10:31;;;;;;;;;;;20.40;66.40;;;;;;5026732;28;20048;-68
2022/09/06 00:13:03;;;;;;;8.65;5.20;;;20.40;66.70;;;;;;5011861;28;20359;-67
2022/09/06 00:15:30;;;;;;;6.50;5.55;;;20.40;66.40;;;;;;5057422;28;20049;-69
2022/09/06 00:18:01;;;;;;;6.30;5.43;;;20.40;66.70;;;;;;5030187;28;20044;-69
2022/09/06 00:20:28;;;;;;;7.88;5.38;;;20.40;66.50;;;;;;5018771;28;20042;-69
2022/09/06 00:22:59;;;;;;;5.85;5.25;;;20.30;66.60;;;;;;5048674;28;20371;-69
2022/09/06 00:25:26;;;;;;;8.55;5.45;;;20.30;66.60;;;;;;5041830;28;20054;-68
2022/09/06 00:27:58;;;;;;;7.75;6.10;;;20.30;66.60;;;;;;5039740;28;20073;-68
2022/09/06 00:30:25;;;;;;;10.82;5.82;;;20.20;67.20;;;;;;5029582;28;20110;-68
2022/09/06 00:32:53;;;;;;;7.38;5.47;;;20.10;67.30;;;;;;5023910;28;20057;-68
2022/09/06 00:35:20;;;;;;;10.73;5.43;;;20.10;67.10;;;;;;5046207;28;20076;-68
2022/09/06 00:37:47;;;;;;;6.57;5.53;;;20.10;66.80;;;;;;5037871;28;20047;-68
2022/09/06 00:40:15;;;;;;;9.07;5.40;;;20.10;66.80;;;;;;5033168;28;20068;-68
2022/09/06 00:42:42;;;;;;;8.18;5.47;;;20.00;66.90;;;;;;5035631;28;20045;-67
2022/09/06 00:45:09;;;;;;;7.30;5.15;;;20.10;66.60;;;;;;5014220;28;20048;-67
2022/09/06 00:47:37;;;;;;;7.18;5.00;;;20.00;66.70;;;;;;5024598;28;20504;-68
2022/09/06 00:50:05;;;;;;;6.43;5.05;;;20.00;67.00;;;;;;5003786;28;20041;-67
2022/09/06 00:52:32;;;;;;;5.90;5.15;;;20.00;66.80;;;;;;5052698;28;20067;-68
2022/09/06 00:54:58;;;;;;;5.75;4.80;;;20.00;67.10;;;;;;5030810;28;20049;-66
2022/09/06 00:57:26;;;;;;;7.68;5.30;;;19.90;67.10;;;;;;5027475;28;20243;-68
2022/09/06 00:59:53;;;;;;;8.18;5.20;;;19.90;66.60;;;;;;5039356;28;20056;-68
2022/09/06 01:02:20;;;;;;;10.87;5.60;;;19.90;66.70;;;;;;5019395;28;20476;-67
2022/09/06 01:04:47;;;;;;;6.70;5.13;;;19.80;67.30;;;;;;5037080;28;20044;-67
2022/09/06 01:07:45;;;;;;;7.70;5.10;;;19.80;67.00;;;;;;5042294;28;20053;-67
2022/09/06 01:10:28;;;;;;;6.60;5.13;;;19.80;67.00;;;;;;5040529;28;20056;-68
2022/09/06 01:13:31;;;;;;;7.00;4.95;;;19.80;67.50;;;;;;5057135;28;20048;-67
2022/09/06 01:16:29;;;;;;;9.38;4.97;;;19.80;67.30;;;;;;4961977;28;20539;-67
2022/09/06 01:19:38;;;;;;;6.35;5.15;;;19.70;67.20;;;;;;5035291;28;20049;-69
2022/09/06 01:23:03;;;;;;;6.35;5.55;;;19.70;67.40;;;;;;5039946;28;20040;-69
2022/09/06 01:25:58;;;;;;;7.10;5.28;;;19.70;67.00;;;;;;4907514;28;20489;-68
2022/09/06 01:28:47;;;;;;;6.07;5.00;;;19.70;67.00;;;;;;4937329;28;20259;-68
2022/09/06 01:31:24;;;;;;;7.65;5.00;;;19.70;67.20;;;;;;4942401;28;20066;-67
2022/09/06 01:33:53;;;;;;;7.40;5.28;;;19.60;67.00;;;;;;4961718;28;20051;-67
2022/09/06 01:36:23;;;;;;;5.63;4.75;;;19.70;67.20;;;;;;4942419;28;20376;-67
2022/09/06 01:38:49;;;;;;;7.97;5.63;;;19.60;67.00;;;;;;4952811;28;20047;-68
2022/09/06 01:41:17;;;;;;;6.28;4.65;;;19.60;67.00;;;;;;4942312;29;20047;-67
2022/09/06 01:43:46;;;;;;;6.88;5.30;;;19.70;66.70;;;;;;4945798;28;20047;-67
2022/09/06 01:46:34;;;;;;;7.40;4.72;;;19.60;66.70;;;;;;4943743;28;20050;-67
2022/09/06 01:49:19;;;;;;;8.10;4.95;;;19.60;66.80;;;;;;5014475;28;20053;-68
2022/09/06 01:52:03;;;;;;;7.05;5.10;;;19.60;66.60;;;;;;5036703;28;20065;-67
2022/09/06 01:54:57;;;;;;;6.95;4.80;;;19.50;66.40;;;;;;5033773;28;20422;-68
2022/09/06 01:58:00;;;;;;;9.38;4.50;;;19.50;66.40;;;;;;5040814;28;20126;-68
2022/09/06 02:00:27;;;;;;;9.77;4.85;;;19.60;66.40;;;;;;5027450;28;20042;-67
2022/09/06 02:03:05;;;;;;;8.75;4.63;;;19.50;66.10;;;;;;5041292;28;20041;-68
2022/09/06 02:05:46;;;;;;;6.70;4.57;;;19.50;66.10;;;;;;5041297;28;20067;-67
2022/09/06 02:08:48;;;;;;;9.10;5.63;;;19.60;65.90;;;;;;5029783;28;20041;-67
2022/09/06 02:11:15;;;;;;;4.80;3.83;;;19.50;65.90;;;;;;5039227;28;20341;-68
2022/09/06 02:13:55;;;;;;;6.72;4.57;;;19.50;65.70;;;;;;5046708;28;20049;-68
2022/09/06 02:16:24;;;;;;;9.80;4.90;;;19.50;65.80;;;;;;5023034;28;20052;-67
2022/09/06 02:19:08;;;;;;;7.70;4.55;;;19.40;65.60;;;;;;5036037;28;20148;-67
2022/09/06 02:21:37;;;;;;;6.00;4.63;;;19.40;65.80;;;;;;5019703;28;20124;-68
2022/09/06 02:24:06;;;;;;;5.50;4.00;;;19.30;65.90;;;;;;5010813;28;20401;-68
2022/09/06 02:26:38;;;;;;;10.52;5.10;;;19.30;65.90;;;;;;5029101;28;20122;-67
2022/09/06 02:29:05;;;;;;;7.15;4.57;;;19.30;65.80;;;;;;5024095;28;20045;-69
2022/09/06 02:31:41;;;;;;;7.22;4.50;;;19.20;65.70;;;;;;4995499;28;20057;-69
2022/09/06 02:34:08;;;;;;;6.15;4.45;;;19.20;65.60;;;;;;5013917;28;20140;-69
2022/09/06 02:36:35;;;;;;;11.15;4.20;;;19.20;65.80;;;;;;5026967;28;20049;-68
2022/09/06 02:39:04;;;;;;;7.07;4.80;;;19.20;65.60;;;;;;5024771;28;20079;-67
2022/09/06 02:41:31;;;;;;;10.02;5.03;;;19.20;65.50;;;;;;5040368;28;20049;-67
2022/09/06 02:43:58;;;;;;;6.70;4.47;;;19.20;65.50;;;;;;5039744;28;20474;-67
2022/09/06 02:46:24;;;;;;;7.97;4.68;;;19.10;65.40;;;;;;5037090;28;20554;-67
2022/09/06 02:48:51;;;;;;;7.30;4.13;;;19.10;65.40;;;;;;5024516;28;20045;-67
2022/09/06 02:51:19;;;;;;;5.97;4.57;;;19.10;65.50;;;;;;5039201;28;20045;-67
2022/09/06 02:53:46;;;;;;;8.45;4.97;;;19.10;65.40;;;;;;5007830;28;20057;-66
2022/09/06 02:56:13;;;;;;;7.22;4.47;;;19.10;65.40;;;;;;5037549;28;20049;-67
2022/09/06 02:58:40;;;;;;;7.32;4.30;;;19.10;65.50;;;;;;5032944;28;20087;-66
2022/09/06 03:01:07;;;;;;;6.60;4.47;;;19.00;65.40;;;;;;5057468;28;20098;-66
2022/09/06 03:03:34;;;;;;;7.33;4.73;;;19.00;65.60;;;;;;5041545;28;20132;-68
2022/09/06 03:06:01;;;;;;;7.72;4.72;;;19.00;65.40;;;;;;5027820;28;20083;-68
2022/09/06 03:08:32;;;;;;;6.72;4.43;;;19.00;65.30;;;;;;5044945;28;20045;-67
2022/09/06 03:10:59;;;;;;;7.85;4.30;;;19.00;66.00;;;;;;5030206;28;20057;-68
2022/09/06 03:13:26;;;;;;;6.77;4.53;;;19.00;65.20;;;;;;5046037;28;20448;-69
2022/09/06 03:15:55;;;;;;;6.63;4.72;;;19.00;65.20;;;;;;5033068;28;20156;-69
2022/09/06 03:18:23;;;;;;;4.55;4.00;;;18.90;65.40;;;;;;5005765;28;20104;-69
2022/09/06 03:20:51;;;;;;;8.70;4.30;;;18.80;65.30;;;;;;5025151;28;20156;-69
2022/09/06 03:23:18;;;;;;;6.65;3.92;;;18.90;65.30;;;;;;4997017;28;20469;-69
2022/09/06 03:25:45;;;;;;;5.27;3.97;;;18.80;65.00;;;;;;5043046;28;20049;-69
2022/09/06 03:28:12;;;;;;;9.38;4.88;;;18.80;65.00;;;;;;5030999;28;20459;-70
2022/09/06 03:30:39;;;;;;;5.63;4.75;;;18.80;64.90;;;;;;5024896;28;20124;-69
2022/09/06 03:33:06;;;;;;;7.35;4.25;;;18.80;65.00;;;;;;5007754;28;20761;-70
2022/09/06 03:35:33;;;;;;;6.55;4.88;;;18.80;64.90;;;;;;5050030;28;20045;-70
2022/09/06 03:38:00;;;;;;;7.32;4.35;;;18.80;65.20;;;;;;5041968;28;20509;-69
2022/09/06 03:40:27;;;;;;;6.80;4.32;;;18.80;65.00;;;;;;5038921;28;20045;-70
2022/09/06 03:42:55;;;;;;;6.57;4.20;;;18.80;64.90;;;;;;5044070;28;20056;-70
2022/09/06 03:45:22;;;;;;;7.22;4.22;;;18.80;64.90;;;;;;5044652;28;20459;-71
2022/09/06 03:47:49;;;;;;;5.80;4.50;;;18.80;64.70;;;;;;5045266;28;20048;-70
2022/09/06 03:50:16;;;;;;;7.13;4.10;;;18.80;65.10;;;;;;5032072;28;20087;-71
2022/09/06 03:52:43;;;;;;;7.88;4.40;;;18.80;64.90;;;;;;5019371;28;20052;-70
2022/09/06 03:55:10;;;;;;;6.22;4.60;;;18.80;64.90;;;;;;5021416;28;20033;-69
2022/09/06 03:57:37;;;;;;;6.15;4.50;;;18.80;64.80;;;;;;5043862;28;20068;-70
2022/09/06 04:00:05;;;;;;;5.53;4.40;;;18.70;64.60;;;;;;5030756;28;20049;-70
2022/09/06 04:02:32;;;;;;;7.23;4.30;;;18.70;64.50;;;;;;5036187;28;20045;-70
2022/09/06 04:04:58;;;;;;;8.05;4.07;;;18.70;64.40;;;;;;5010761;28;20051;-70
2022/09/06 04:07:25;;;;;;;8.18;4.80;;;18.70;64.70;;;;;;5047775;28;20060;-70
2022/09/06 04:09:53;;;;;;;9.15;4.65;;;18.60;65.10;;;;;;5042781;28;20439;-70
2022/09/06 04:12:20;;;;;;;6.72;4.35;;;18.60;64.50;;;;;;5042326;28;20077;-70
2022/09/06 04:14:47;;;;;;;7.50;3.72;;;18.50;64.40;;;;;;5030799;28;20053;-71
2022/09/06 04:17:14;;;;;;;6.50;3.88;;;18.50;64.40;;;;;;5016443;28;20051;-70
2022/09/06 04:19:41;;;;;;;6.88;4.15;;;18.50;64.30;;;;;;5042354;28;20580;-70
2022/09/06 04:22:08;;;;;;;8.18;4.20;;;18.40;64.40;;;;;;5026462;28;20072;-70
2022/09/06 04:24:35;;;;;;;8.02;3.78;;;18.40;64.30;;;;;;5044372;28;20122;-70
2022/09/06 04:27:02;;;;;;;8.07;4.45;;;18.40;64.60;;;;;;5042403;28;20060;-70
2022/09/06 04:29:29;;;;;;;5.93;3.80;;;18.40;64.50;;;;;;5021405;28;20079;-70
2022/09/06 04:31:56;;;;;;;4.78;4.00;;;18.40;64.60;;;;;;5020593;28;20136;-70
2022/09/06 04:34:23;;;;;;;5.30;4.13;;;18.40;64.40;;;;;;5036152;28;20111;-70
2022/09/06 04:36:50;;;;;;;9.27;4.22;;;18.30;64.40;;;;;;5031874;28;20053;-70
2022/09/06 04:39:18;;;;;;;6.25;4.07;;;18.30;64.40;;;;;;5043467;28;20049;-70
2022/09/06 04:41:45;;;;;;;5.88;4.20;;;18.30;64.40;;;;;;5025705;28;20040;-70
2022/09/06 04:44:13;;;;;;;10.05;4.07;;;18.30;64.10;;;;;;5042512;28;20124;-70
2022/09/06 04:46:40;;;;;;;7.63;4.13;;;18.40;64.00;;;;;;5028101;28;20055;-70
2022/09/06 04:49:07;;;;;;;8.05;3.95;;;18.30;64.00;;;;;;5045049;28;20052;-70
2022/09/06 04:51:36;;;;;;;9.65;4.20;;;18.30;64.10;;;;;;5032338;28;20139;-70
2022/09/06 04:54:03;;;;;;;7.15;4.05;;;18.30;64.20;;;;;;5023777;28;20056;-70
2022/09/06 04:56:30;;;;;;;5.63;3.78;;;18.30;64.10;;;;;;5007969;28;20055;-70
2022/09/06 04:58:57;;;;;;;6.00;3.70;;;18.30;64.10;;;;;;5023026;28;20038;-71
2022/09/06 05:01:25;;;;;;;9.48;4.28;;;18.40;63.90;;;;;;5055369;28;20171;-71
2022/09/06 05:03:52;;;;;;;7.30;3.65;;;18.40;63.70;;;;;;5030647;28;20188;-70
2022/09/06 05:06:22;;;;;;;5.90;3.75;;;18.40;63.80;;;;;;5021927;28;20045;-70
2022/09/06 05:08:50;;;;;;;7.13;3.60;;;18.40;63.80;;;;;;5020578;28;20512;-70
2022/09/06 05:11:17;;;;;;;6.00;3.90;;;18.40;63.60;;;;;;5018952;28;20051;-70
2022/09/06 05:13:45;;;;;;;8.93;4.07;;;18.30;63.70;;;;;;5043476;28;20739;-70
2022/09/06 05:16:12;;;;;;;7.13;4.13;;;18.40;63.70;;;;;;5001519;28;20494;-70
2022/09/06 05:18:39;;;;;;;7.63;3.97;;;18.30;64.00;;;;;;5019051;28;20068;-70
2022/09/06 05:21:06;;;;;;;8.27;4.20;;;18.30;64.10;;;;;;5042145;28;20732;-69
2022/09/06 05:23:33;;;;;;;7.82;4.25;;;18.30;64.60;;;;;;5019458;28;20118;-70
2022/09/06 05:26:00;;;;;;;12.00;4.05;;;18.30;64.30;;;;;;5014906;28;20048;-69
2022/09/06 05:28:27;;;;;;;10.23;4.00;;;18.30;64.70;;;;;;5013062;28;20045;-69
2022/09/06 05:30:53;;;;;;;8.20;3.75;;;18.30;64.40;;;;;;5023833;28;20053;-70
2022/09/06 05:33:21;;;;;;;9.93;4.00;;;18.30;64.40;;;;;;5040357;28;20398;-70
2022/09/06 05:35:48;;;;;;;7.28;4.00;;;18.30;64.30;;;;;;5046886;28;20051;-70
2022/09/06 05:38:15;;;;;;;7.68;4.20;;;18.30;63.90;;;;;;5009174;28;20420;-70
2022/09/06 05:40:42;;;;;;;6.43;3.92;;;18.30;63.90;;;;;;5041641;28;20127;-70
2022/09/06 05:43:09;;;;;;;7.30;3.60;;;18.40;63.90;;;;;;5034936;28;20107;-70
2022/09/06 05:45:36;;;;;;;6.50;3.78;;;18.30;63.90;;;;;;5031636;28;20048;-70
2022/09/06 05:48:03;;;;;;;6.72;4.15;;;18.40;63.60;;;;;;5031753;28;20102;-69
2022/09/06 05:50:30;;;;;;;9.38;3.95;;;18.40;63.70;;;;;;5045732;28;20052;-70
2022/09/06 05:52:59;;;;;;;9.90;3.60;;;18.40;63.60;;;;;;5021520;28;20393;-69
2022/09/06 05:55:26;;;;;;;6.55;3.40;;;18.40;63.50;;;;;;5021811;28;20052;-70
2022/09/06 05:57:53;;;;;;;7.85;3.65;;;18.40;63.30;;;;;;5004108;28;20041;-70
2022/09/06 06:00:21;;;;;;;5.18;3.60;;;18.40;63.30;;;;;;5017364;28;20091;-69
2022/09/06 06:02:48;;;;;;;8.40;3.60;;;18.40;63.30;;;;;;5019384;28;20120;-69
2022/09/06 06:05:15;;;;;;;6.20;3.53;;;18.40;63.30;;;;;;5030569;28;20099;-69
2022/09/06 06:07:44;;;;;;;5.45;3.72;;;18.30;63.40;;;;;;5041955;28;20115;-69
2022/09/06 06:10:11;;;;;;;8.15;3.92;;;18.30;63.30;;;;;;5012092;28;20060;-69
2022/09/06 06:12:38;;;;;;;9.20;3.90;;;18.40;63.20;;;;;;5022244;28;20077;-69
2022/09/06 06:15:06;;;;;;;7.65;3.80;;;18.30;63.00;;;;;;5004384;28;20051;-69
2022/09/06 06:17:33;;;;;;;7.25;3.90;;;18.30;63.00;;;;;;5018022;28;20041;-69
2022/09/06 06:20:00;;;;;;;7.25;3.85;;;18.30;63.00;;;;;;5015721;28;20041;-69
2022/09/06 06:22:26;;;;;;;7.10;3.90;;;18.30;62.80;;;;;;5028760;28;20538;-68
2022/09/06 06:24:52;;;;;;;7.88;3.75;;;18.40;62.80;;;;;;4996388;28;20139;-68
2022/09/06 06:27:19;;;;;;;7.15;3.72;;;18.30;62.70;;;;;;5033650;28;20049;-68
2022/09/06 06:29:46;;;;;;;6.93;3.20;;;18.30;62.90;;;;;;5031436;28;20056;-68
2022/09/06 06:32:13;;;;;;;8.98;3.80;;;18.40;62.60;;;;;;5033507;28;20083;-69
2022/09/06 06:34:40;;;;;;;7.72;3.63;;;18.30;62.60;;;;;;5034568;28;20049;-68
2022/09/06 06:37:07;;;;;;;9.95;4.07;;;18.40;62.60;;;;;;5030661;28;20106;-69
2022/09/06 06:39:34;;;;;;;7.80;4.10;;;18.40;62.50;;;;;;5039300;28;20073;-68
2022/09/06 06:42:02;;;;;;;5.57;3.10;;;18.40;62.30;;;;;;5033834;28;20049;-69
2022/09/06 06:44:29;;;;;;;7.03;3.60;;;18.40;62.20;;;;;;5008339;28;20049;-69
2022/09/06 06:46:57;;;;;;;7.30;3.67;;;18.50;62.00;;;;;;5016275;28;20065;-69
2022/09/06 06:49:24;;;;;;;11.13;3.60;;;18.50;62.20;;;;;;5038950;28;20044;-69
2022/09/06 06:51:51;;;;;;;6.97;3.33;;;18.50;62.10;;;;;;5024379;28;20128;-69
2022/09/06 06:54:19;;;;;;;8.27;3.25;;;18.50;61.90;;;;;;5039952;28;20061;-70
2022/09/06 06:56:46;;;;;;;6.35;3.70;;;18.60;61.90;;;;;;5023588;28;20050;-69
2022/09/06 06:59:13;;;;;;;8.38;3.28;;;18.60;62.00;;;;;;5040485;28;20140;-69
2022/09/06 07:01:40;;;;;;;9.60;3.92;;;18.60;62.40;;;;;;5031183;28;20052;-69
2022/09/06 07:04:09;;;;;;;9.95;3.50;;;18.60;62.20;;;;;;5024521;28;20053;-69
2022/09/06 07:06:52;;;;;;;7.68;3.78;;;18.60;62.40;;;;;;5023821;28;20095;-69
2022/09/06 07:09:19;;;;;;;11.68;3.85;;;18.60;62.40;;;;;;5019058;28;20056;-69
2022/09/06 07:11:47;;;;;;;7.03;3.20;;;18.60;62.50;;;;;;5024457;28;20053;-69
2022/09/06 07:14:15;;;;;;;7.20;3.10;;;18.60;62.50;;;;;;5017350;28;20471;-69
2022/09/06 07:16:43;;;;;;;6.15;3.35;;;18.70;62.40;;;;;;5012283;28;20056;-69
2022/09/06 07:19:10;;;;;;;5.77;3.20;;;18.80;62.40;;;;;;5017778;28;20037;-68
2022/09/06 07:21:37;;;;;;;6.93;3.40;;;18.80;62.30;;;;;;5029354;28;20182;-69
2022/09/06 07:24:06;;;;;;;9.00;3.60;;;18.80;62.00;;;;;;5045455;28;20049;-69
2022/09/06 07:26:33;;;;;;;7.60;3.22;;;18.80;61.90;;;;;;5038576;28;20049;-68
2022/09/06 07:29:01;;;;;;;10.60;4.10;;;18.80;61.70;;;;;;5034699;28;20040;-68
2022/09/06 07:31:31;;;;;;;7.43;4.00;;;18.80;61.60;;;;;;5021787;28;20481;-69
2022/09/06 07:33:59;;;;;;;9.95;3.47;;;18.80;61.60;;;;;;5030328;28;20167;-68
2022/09/06 07:36:26;;;;;;;9.20;3.95;;;18.80;61.70;;;;;;5018975;28;20051;-69
2022/09/06 07:38:53;;;;;;;10.25;3.38;;;18.90;61.80;;;;;;5040862;28;20079;-69
2022/09/06 07:41:21;;;;;;;11.07;3.83;;;18.80;61.80;;;;;;5019184;28;20036;-69
2022/09/06 07:43:53;;;;;;;8.50;3.22;;;18.80;61.70;;;;;;5021261;28;20048;-69
2022/09/06 07:46:20;;;;;;;9.13;3.35;;;18.90;62.00;;;;;;5015285;28;20052;-69
2022/09/06 07:48:48;;;;;;;7.22;3.70;;;19.00;62.00;;;;;;5020412;28;20135;-69
2022/09/06 07:51:18;;;;;;;8.43;3.47;;;19.00;61.80;;;;;;5038017;28;20053;-69
2022/09/06 07:53:54;;;;;;;7.82;3.58;;;18.90;62.10;;;;;;5023015;28;20049;-69
2022/09/06 07:56:22;;;;;;;8.27;4.10;;;18.90;62.00;;;;;;5019859;28;20045;-68
2022/09/06 07:58:50;;;;;;;7.45;4.00;;;18.90;61.90;;;;;;5021960;28;20041;-68
2022/09/06 08:01:34;;;;;;;9.87;3.40;;;18.90;61.70;;;;;;5035331;28;20061;-67
2022/09/06 08:04:13;;;;;;;10.18;3.25;;;18.90;61.80;;;;;;5018505;28;20808;-68
2022/09/06 08:06:47;;;;;;;9.40;3.50;;;19.00;61.70;;;;;;5001497;28;20646;-68
2022/09/06 08:09:14;;;;;;;8.02;3.33;;;19.00;61.50;;;;;;5023534;28;20083;-67
2022/09/06 08:11:42;;;;;;;10.85;4.32;;;19.00;61.80;;;;;;5031803;28;20056;-68
2022/09/06 08:14:09;;;;;;;6.50;3.20;;;18.90;61.70;;;;;;5027429;28;20475;-68
2022/09/06 08:16:37;;;;;;;7.18;3.40;;;18.90;61.60;;;;;;5022488;28;20390;-68
2022/09/06 08:19:07;;;;;;;6.13;3.13;;;19.00;61.50;;;;;;5027413;28;20041;-69
2022/09/06 08:21:34;;;;;;;8.80;3.58;;;19.00;61.40;;;;;;5043192;28;20417;-68
2022/09/06 08:24:03;;;;;;;9.43;3.72;;;19.10;61.40;;;;;;5003893;28;20041;-69
2022/09/06 08:26:29;;;;;;;8.00;3.40;;;19.20;61.00;;;;;;5032757;28;20069;-68
2022/09/06 08:29:00;;;;;;;8.75;3.58;;;19.20;61.20;;;;;;4997650;28;20052;-69
2022/09/06 08:31:30;;;;;;;8.15;3.50;;;19.30;60.80;;;;;;5044488;28;20060;-68
2022/09/06 08:33:58;;;;;;;8.40;3.70;;;19.40;60.50;;;;;;5020669;28;20049;-70
2022/09/06 08:36:28;;;;;;;7.90;3.70;;;19.50;60.30;;;;;;5041397;28;20061;-69
2022/09/06 08:38:57;;;;;;;7.65;3.78;;;19.50;60.10;;;;;;5032988;28;20052;-70
2022/09/06 08:41:33;;;;;;;13.07;3.67;;;19.50;59.60;;;;;;5045388;28;20624;-71
2022/09/06 08:44:04;;;;;;;7.72;3.25;;;19.60;59.90;;;;;;5026513;28;20131;-70
2022/09/06 08:46:40;;;;;;;9.35;3.75;;;19.70;60.30;;;;;;5028169;28;20118;-70
2022/09/06 08:49:07;;;;;;;10.75;3.90;;;19.80;60.00;;;;;;5022853;28;20831;-71
2022/09/06 08:51:48;;;;;;;7.82;3.75;;;19.90;60.00;;;;;;5010679;28;20535;-71
2022/09/06 08:54:37;;;;;;;6.15;3.65;;;20.00;59.80;;;;;;5046742;28;20048;-72
2022/09/06 08:57:36;;;;;;;11.88;3.78;;;19.90;59.40;;;;;;5064579;28;20094;-70
2022/09/06 09:00:10;;;;;;;10.68;3.42;;;20.00;59.50;;;;;;5038918;28;20485;-71
2022/09/06 09:02:45;;;;;;;10.30;3.47;;;20.20;59.60;;;;;;5026186;28;20045;-72
2022/09/06 09:05:21;;;;;;;8.73;3.30;;;20.20;59.60;;;;;;5027956;28;20076;-69
2022/09/06 09:08:09;;;;;;;10.38;3.72;;;20.20;59.30;;;;;;5009343;28;20041;-71
2022/09/06 09:10:42;;;;;;;9.98;3.28;;;20.20;59.60;;;;;;5039806;28;20118;-70
2022/09/06 09:13:31;;;;;;;7.43;3.33;;;20.30;58.90;;;;;;5034291;28;20527;-70
2022/09/06 09:15:58;;;;;;;10.35;3.22;;;20.40;59.10;;;;;;5047277;28;20171;-70
2022/09/06 09:18:33;;;;;;;8.88;3.28;;;20.40;59.00;;;;;;5043274;28;20040;-71
2022/09/06 09:21:00;;;;;;;8.48;3.33;;;20.40;58.70;;;;;;5061968;28;20637;-70
2022/09/06 09:23:29;;;;;;;6.68;2.65;;;20.50;58.80;;;;;;5023628;28;20044;-70
2022/09/06 09:26:02;;;;;;;7.05;2.72;;;20.60;58.50;;;;;;5029207;28;20134;-70
2022/09/06 09:28:29;;;;;;;16.92;3.53;;;20.60;58.00;;;;;;5015218;28;20402;-70
2022/09/06 09:30:55;;;;;;;9.70;3.00;;;20.60;57.80;;;;;;5052844;28;20048;-70
2022/09/06 09:33:40;;;;;;;6.15;2.70;;;20.70;57.70;;;;;;5020191;28;20424;-70
2022/09/06 09:36:11;;;;;;;12.90;3.58;;;20.90;57.70;;;;;;5038958;28;20053;-71
2022/09/06 09:38:45;;;;;;;9.77;2.97;;;20.90;57.20;;;;;;5018829;28;20116;-70
2022/09/06 09:41:27;;;;;;;6.95;3.17;;;20.90;56.80;;;;;;5039185;28;20046;-70
2022/09/06 09:44:02;;;;;;;9.05;3.20;;;21.00;57.50;;;;;;5016185;28;20057;-70
2022/09/06 09:46:33;;;;;;;12.15;3.60;;;21.10;57.10;;;;;;5045918;28;20052;-69
2022/09/06 09:49:35;;;;;;;6.93;3.03;;;21.20;57.10;;;;;;5036859;28;20076;-70
2022/09/06 09:52:12;;;;;;;8.65;3.13;;;21.20;56.80;;;;;;5042383;28;20096;-70
2022/09/06 09:54:41;;;;;;;9.68;2.95;;;21.30;56.90;;;;;;5024363;28;20128;-71
2022/09/06 09:57:17;;;;;;;5.68;2.70;;;21.40;56.40;;;;;;5027131;28;20102;-71
2022/09/06 09:59:51;;;;;;;6.07;2.90;;;21.60;56.50;;;;;;5009710;28;20115;-70
2022/09/06 10:02:32;;;;;;;7.55;2.95;;;21.70;56.30;;;;;;5010664;28;20049;-70
2022/09/06 10:05:18;;;;;;;12.23;3.33;;;21.80;55.90;;;;;;4994465;28;20073;-70
2022/09/06 10:07:54;;;;;;;5.57;2.72;;;22.00;55.40;;;;;;5011701;28;20048;-70
2022/09/06 10:10:27;;;;;;;10.85;3.10;;;22.20;55.40;;;;;;5036831;28;20664;-70
2022/09/06 10:13:15;;;;;;;6.90;3.47;;;22.30;54.90;;;;;;5022538;28;20052;-70
2022/09/06 10:15:42;;;;;;;9.32;3.47;;;22.30;54.90;;;;;;5037229;28;20498;-70
2022/09/06 10:18:40;;;;;;;6.20;3.20;;;22.30;54.60;;;;;;5030057;28;20482;-70
2022/09/06 10:21:22;;;;;;;6.22;3.33;;;22.50;54.60;;;;;;5032890;28;20107;-69
2022/09/06 10:24:20;;;;;;;7.93;3.08;;;22.60;54.80;;;;;;5017378;28;20483;-70
2022/09/06 10:26:54;;;;;;;;;;;22.60;55.00;;;;;;5029205;28;20084;-70
2022/09/06 10:29:41;;;;;;;5.38;3.15;;;22.70;55.00;;;;;;5016733;28;19917;-70
2022/09/06 10:32:41;;;;;;;9.43;3.65;;;23.00;54.70;;;;;;5041053;28;20072;-69
2022/09/06 10:35:46;;;;;;;12.43;3.95;;;23.20;53.60;;;;;;5009870;28;20072;-70
2022/09/06 10:38:31;;;;;;;10.60;3.28;;;23.40;53.30;;;;;;5038097;28;20049;-71
2022/09/06 10:41:35;;;;;;;12.45;3.40;;;23.70;53.60;;;;;;5038739;28;20493;-70
2022/09/06 10:44:10;;;;;;;9.13;3.40;;;24.00;53.40;;;;;;5036503;28;20045;-70
2022/09/06 10:46:38;;;;;;;11.60;3.50;;;24.00;52.30;;;;;;5006741;28;20049;-70
2022/09/06 10:49:05;;;;;;;6.78;2.90;;;24.10;52.30;;;;;;5037497;28;20057;-70
2022/09/06 10:51:51;;;;;;;7.07;3.15;;;24.10;52.30;;;;;;5038547;28;20057;-70
2022/09/06 10:54:21;;;;;;;7.47;2.97;;;24.20;51.60;;;;;;5057165;28;20055;-68
2022/09/06 10:57:00;;;;;;;8.80;2.60;;;24.40;51.60;;;;;;5016051;28;20503;-70
2022/09/06 10:59:49;;;;;;;5.57;3.10;;;24.60;51.10;;;;;;5020394;28;20060;-70
2022/09/06 11:02:53;;;;;;;8.23;2.70;;;24.70;50.30;;;;;;5041332;28;20068;-70
2022/09/06 11:06:04;;;;;;;6.25;2.60;;;24.70;51.00;;;;;;5039311;28;20460;-69
2022/09/06 11:08:46;;;;;;;9.60;2.92;;;24.60;50.70;;;;;;5022614;28;20060;-69
2022/09/06 11:11:20;;;;;;;7.68;2.92;;;24.50;50.70;;;;;;5040177;28;20126;-70
2022/09/06 11:13:47;;;;;;;9.15;3.00;;;24.40;51.30;;;;;;5015947;28;20064;-70
2022/09/06 11:16:59;;;;;;;8.18;3.33;;;24.30;50.90;;;;;;5018242;28;20055;-70
2022/09/06 11:19:29;;;;;;;5.80;3.15;;;24.20;51.30;;;;;;4935252;28;20110;-70
2022/09/06 11:22:54;;;;;;;6.00;2.85;;;24.20;52.20;;;;;;5049705;28;20059;-70
2022/09/06 11:25:42;;;;;;;6.38;3.15;;;24.20;52.20;;;;;;4970688;28;20845;-69
2022/09/06 11:28:10;;;;;;;8.18;3.20;;;24.30;51.70;;;;;;4981631;28;20614;-68
2022/09/06 11:30:37;;;;;;;7.18;3.15;;;24.30;51.80;;;;;;4965815;28;20112;-70
2022/09/06 11:33:17;;;;;;;10.30;3.40;;;24.30;51.60;;;;;;4934177;28;20070;-69
2022/09/06 11:35:44;;;;;;;8.45;3.35;;;24.30;51.90;;;;;;4939746;28;20124;-69
2022/09/06 11:38:18;;;;;;;7.60;3.53;;;24.20;52.20;;;;;;4941378;28;20078;-69
2022/09/06 11:41:03;;;;;;;5.78;3.38;;;24.20;52.00;;;;;;4975633;28;20100;-69
2022/09/06 11:43:48;;;;;;;7.28;3.08;;;24.20;52.30;;;;;;4941475;28;20084;-69
2022/09/06 11:46:33;;;;;;;9.77;3.33;;;24.30;52.30;;;;;;4965123;28;20042;-69
2022/09/06 11:49:10;;;;;;;7.65;3.10;;;24.30;51.90;;;;;;4960669;28;20038;-69
2022/09/06 11:51:42;;;;;;;6.65;3.20;;;24.30;52.10;;;;;;4973274;28;20465;-69
2022/09/06 11:54:17;;;;;;;8.10;3.35;;;24.40;52.00;;;;;;4974517;28;20083;-69
2022/09/06 11:57:14;;;;;;;9.38;3.30;;;24.40;52.20;;;;;;4964330;28;20667;-70
2022/09/06 11:59:48;;;;;;;9.32;3.40;;;24.40;51.80;;;;;;4971565;28;21012;-69
2022/09/06 12:02:36;;;;;;;9.65;3.67;;;24.40;52.90;;;;;;5034377;28;20064;-69
2022/09/06 12:05:06;;;;;;;13.50;3.60;;;24.40;52.10;;;;;;5045564;28;20319;-69
2022/09/06 12:07:37;;;;;;;8.23;3.67;;;24.40;52.10;;;;;;5041476;28;20047;-69
2022/09/06 12:10:40;;;;;;;5.93;3.15;;;24.40;52.10;;;;;;5024560;28;20495;-69
2022/09/06 12:13:53;;;;;;;8.27;3.30;;;24.60;52.40;;;;;;5039845;28;20494;-69
2022/09/06 12:16:20;;;;;;;6.90;3.33;;;24.90;51.70;;;;;;5043682;28;20049;-69
2022/09/06 12:18:46;;;;;;;8.40;3.50;;;25.20;51.90;;;;;;5045402;28;20075;-68
2022/09/06 12:21:34;;;;;;;9.15;3.38;;;25.40;51.10;;;;;;5064841;28;20040;-69
2022/09/06 12:24:01;;;;;;;7.70;2.80;;;25.50;51.00;;;;;;5029405;28;20117;-69
2022/09/06 12:26:51;;;;;;;6.68;3.50;;;25.50;50.40;;;;;;5021260;28;20041;-69
2022/09/06 12:29:27;;;;;;;11.88;3.40;;;25.60;50.80;;;;;;5009167;28;20053;-69
2022/09/06 12:31:59;;;;;;;8.20;3.22;;;25.90;51.00;;;;;;5039759;28;20199;-69
2022/09/06 12:34:29;;;;;;;6.03;3.40;;;26.20;50.50;;;;;;5059982;28;20356;-68
2022/09/06 12:37:14;;;;;;;11.77;3.60;;;26.40;50.00;;;;;;5005690;28;20387;-70
2022/09/06 12:39:56;;;;;;;11.35;3.60;;;26.60;50.10;;;;;;5049226;28;20044;-70
2022/09/06 12:42:23;;;;;;;9.88;2.90;;;26.50;49.60;;;;;;5019277;28;20066;-70
2022/09/06 12:44:51;;;;;;;6.00;3.00;;;26.60;49.10;;;;;;5030351;28;20045;-70
2022/09/06 12:47:30;;;;;;;4.78;3.20;;;26.70;48.40;;;;;;5040398;28;20049;-69
2022/09/06 12:50:24;;;;;;;6.38;3.35;;;26.90;49.00;;;;;;4997587;28;20838;-70
2022/09/06 12:53:01;;;;;;;7.88;3.13;;;27.10;48.60;;;;;;5022330;28;20076;-69
2022/09/06 12:55:34;;;;;;;10.63;3.30;;;27.30;47.50;;;;;;5038634;28;20052;-69
2022/09/06 12:58:09;;;;;;;9.73;3.08;;;27.50;47.50;;;;;;5035267;28;20288;-70
2022/09/06 13:00:39;;;;;;;8.18;3.10;;;27.60;46.40;;;;;;5043739;28;20059;-70
2022/09/06 13:03:31;;;;;;;8.35;3.30;;;27.70;46.00;;;;;;5043828;28;20074;-70
2022/09/06 13:05:59;;;;;;;6.00;2.95;;;27.90;45.80;;;;;;5041490;28;20044;-68
2022/09/06 13:08:37;;;;;;;6.45;2.92;;;28.30;45.40;;;;;;5031026;28;20511;-69
2022/09/06 13:11:04;;;;;;;8.00;2.97;;;29.30;43.70;;;;;;5015345;28;20378;-69
2022/09/06 13:13:31;;;;;;;6.78;2.47;;;29.90;42.20;;;;;;5040111;28;20053;-71
2022/09/06 13:15:57;;;;;;;6.22;2.65;;;30.50;40.80;;;;;;5024652;28;20037;-69